createdAt,value
2018-08-11T00:06:44.895Z,38.4
2018-08-11T00:23:34.857Z,38.4
2018-08-11T00:40:24.842Z,38.8
2018-08-11T00:57:14.557Z,40.4
2018-08-11T01:10:42.104Z,42.4
2018-08-11T01:24:09.362Z,44.4
2018-08-11T01:37:36.451Z,46.0
2018-08-11T01:54:24.950Z,48.0
2018-08-11T02:11:13.397Z,49.2
2018-08-11T02:28:02.073Z,49.6
2018-08-11T02:44:50.635Z,51.2
2018-08-11T03:01:39.135Z,50.8
2018-08-11T03:18:27.349Z,51.6
2018-08-11T03:35:15.560Z,52.0
2018-08-11T03:52:03.855Z,52.0
2018-08-11T04:08:52.037Z,52.4
2018-08-11T04:25:40.010Z,52.8
2018-08-11T04:42:27.838Z,52.8
2018-08-11T04:59:15.871Z,52.8
2018-08-11T05:16:03.891Z,53.2
2018-08-11T05:32:51.832Z,53.2
2018-08-11T05:49:39.806Z,54.0
2018-08-11T06:06:27.754Z,54.4
2018-08-11T06:23:15.405Z,54.8
2018-08-11T06:40:03.780Z,54.4
2018-08-11T06:56:51.985Z,54.4
2018-08-11T07:13:40.095Z,54.0
2018-08-11T07:30:28.215Z,54.0
2018-08-11T07:47:16.495Z,53.6
2018-08-11T08:04:05.544Z,54.4
2018-08-11T08:20:52.655Z,53.6
2018-08-11T08:37:41.202Z,52.4
2018-08-11T08:54:29.644Z,51.2
2018-08-11T09:11:18.161Z,50.0
2018-08-11T09:28:08.221Z,49.2
2018-08-11T09:44:56.196Z,48.4
2018-08-11T10:01:46.237Z,47.6
2018-08-11T10:18:35.393Z,46.8
2018-08-11T10:35:25.098Z,47.6
2018-08-11T10:52:15.404Z,46.0
2018-08-11T11:09:05.535Z,47.2
2018-08-11T11:24:15.044Z,46.8
2018-08-11T11:41:06.082Z,47.6
2018-08-11T11:57:57.288Z,47.2
2018-08-11T12:14:49.180Z,46.8
2018-08-11T12:31:41.621Z,46.8
2018-08-11T12:48:32.920Z,46.8
2018-08-11T13:05:25.114Z,46.4
2018-08-11T13:22:17.741Z,46.4
2018-08-11T13:39:10.543Z,46.4
2018-08-11T13:56:03.296Z,46.4
2018-08-11T14:12:56.131Z,46.4
2018-08-11T14:29:48.978Z,46.4
2018-08-11T14:46:41.865Z,46.4
2018-08-11T15:03:34.672Z,46.4
2018-08-11T15:20:27.429Z,45.2
2018-08-11T15:28:53.838Z,43.2
2018-08-11T15:42:23.795Z,41.2
2018-08-11T15:59:16.190Z,40.4
2018-08-11T16:16:08.588Z,41.2
2018-08-11T16:33:01.166Z,41.6
2018-08-11T16:49:53.105Z,42.0
2018-08-11T17:06:45.468Z,42.8
2018-08-11T17:23:37.681Z,43.2
2018-08-11T17:40:29.957Z,43.2
2018-08-11T17:57:22.171Z,43.6
2018-08-11T18:14:14.200Z,44.0
2018-08-11T18:31:06.089Z,44.0
2018-08-11T18:47:58.191Z,44.8
2018-08-11T19:04:49.627Z,44.8
2018-08-11T19:21:41.324Z,44.8
2018-08-11T19:38:32.956Z,45.6
2018-08-11T19:55:24.540Z,46.0
2018-08-11T20:12:15.996Z,46.0
2018-08-11T20:29:07.735Z,46.0
2018-08-11T20:45:59.137Z,46.4
2018-08-11T21:02:50.738Z,46.4
2018-08-11T21:19:41.672Z,46.4
2018-08-11T21:36:32.115Z,46.4
2018-08-11T21:53:22.875Z,45.6
2018-08-11T22:10:12.902Z,44.8
2018-08-11T22:27:03.353Z,44.0
2018-08-11T22:43:53.058Z,43.6
2018-08-11T23:00:42.920Z,43.6
2018-08-11T23:17:32.902Z,43.6
2018-08-11T23:34:22.736Z,43.6
2018-08-11T23:51:13.159Z,43.6
